createdAt,value
2022-11-28T00:00:01.793Z,27.5
2022-11-28T00:01:01.065Z,27.6
2022-11-28T00:02:01.134Z,27.7
2022-11-28T00:03:01.279Z,27.8
2022-11-28T00:04:01.110Z,28.1
2022-11-28T00:05:02.014Z,28.3
2022-11-28T00:06:01.926Z,28.3
2022-11-28T00:07:01.768Z,28.5
2022-11-28T00:08:01.228Z,28.7
2022-11-28T00:09:01.120Z,28.9
2022-11-28T00:10:01.133Z,29.3
2022-11-28T00:11:01.133Z,29.5
2022-11-28T00:12:01.152Z,30.1
2022-11-28T00:13:01.167Z,30.2
2022-11-28T00:14:01.058Z,30.5
2022-11-28T00:15:01.540Z,30.7
2022-11-28T00:16:01.269Z,31
2022-11-28T00:17:01.065Z,31.5
2022-11-28T00:18:01.076Z,31.8
2022-11-28T00:19:01.754Z,31.9
2022-11-28T00:20:01.078Z,32
2022-11-28T00:21:01.091Z,32.4
2022-11-28T00:22:01.482Z,32.7
2022-11-28T00:23:01.475Z,32.8
2022-11-28T00:24:16.434Z,33
2022-11-28T00:25:01.119Z,33.3
2022-11-28T00:26:01.358Z,33.5
2022-11-28T00:27:01.128Z,33.8
2022-11-28T00:28:01.164Z,34
2022-11-28T00:29:01.148Z,34.1
2022-11-28T00:30:01.911Z,34.3
2022-11-28T00:31:01.599Z,34.4
2022-11-28T00:32:01.136Z,34.5
2022-11-28T00:33:02.654Z,34.6
2022-11-28T00:34:01.781Z,34.8
2022-11-28T00:35:01.757Z,34.9
2022-11-28T00:36:01.806Z,35
2022-11-28T00:37:01.751Z,35.1
2022-11-28T00:38:02.102Z,35.1
2022-11-28T00:39:01.359Z,35.1
2022-11-28T00:40:01.477Z,35.1
2022-11-28T00:41:02.027Z,35.2
2022-11-28T00:42:01.133Z,35.2
2022-11-28T00:43:01.121Z,35.3
2022-11-28T00:44:01.238Z,35.4
2022-11-28T00:45:01.130Z,35.6
2022-11-28T00:46:01.400Z,35.7
2022-11-28T00:47:01.527Z,35.5
2022-11-28T00:48:02.164Z,35.6
2022-11-28T00:49:02.166Z,35.6
2022-11-28T00:50:01.094Z,35.7
2022-11-28T00:51:01.083Z,35.8
2022-11-28T00:52:01.080Z,35.7
2022-11-28T00:53:01.080Z,35.6
2022-11-28T00:54:01.098Z,35.8
2022-11-28T00:55:01.092Z,35.7
2022-11-28T00:56:01.205Z,35.8
2022-11-28T00:57:01.498Z,35.7
2022-11-28T00:58:02.180Z,35.7
2022-11-28T00:59:01.133Z,35.6
2022-11-28T01:00:01.124Z,35.7
2022-11-28T01:01:04.350Z,35.7
2022-11-28T01:02:01.253Z,35.7
2022-11-28T01:03:01.136Z,35.7
2022-11-28T01:04:01.162Z,36
2022-11-28T01:05:01.053Z,36.2
2022-11-28T01:06:06.421Z,36.2
2022-11-28T01:07:01.070Z,36.2
2022-11-28T01:08:01.079Z,36.4
2022-11-28T01:09:01.086Z,36.3
2022-11-28T01:10:01.755Z,36.4
2022-11-28T01:11:09.855Z,36.4
2022-11-28T01:12:01.095Z,36.4
2022-11-28T01:13:01.099Z,36.7
2022-11-28T01:14:01.508Z,37
2022-11-28T01:15:01.219Z,37
2022-11-28T01:16:12.891Z,37
2022-11-28T01:17:01.134Z,37
2022-11-28T01:18:01.144Z,37.3
2022-11-28T01:19:00.848Z,37.5
2022-11-28T01:20:01.154Z,37.4
2022-11-28T01:21:15.588Z,37.7
2022-11-28T01:22:01.315Z,37.8
2022-11-28T01:23:01.315Z,37.8
2022-11-28T01:24:01.435Z,38.4
2022-11-28T01:25:02.097Z,39
2022-11-28T01:26:16.728Z,39.7
2022-11-28T01:27:02.151Z,40.2
2022-11-28T01:28:01.287Z,40.7
2022-11-28T01:29:01.233Z,41.2
2022-11-28T01:30:01.111Z,41.5
2022-11-28T01:31:01.104Z,41.6
2022-11-28T01:32:01.232Z,41.7
2022-11-28T01:33:01.122Z,41.9
2022-11-28T01:34:01.149Z,42
2022-11-28T01:35:01.137Z,42.2
2022-11-28T01:36:01.141Z,42.7
2022-11-28T01:37:01.271Z,43.7
2022-11-28T01:38:02.110Z,43.8
2022-11-28T01:39:01.987Z,44.6
2022-11-28T01:40:01.063Z,45
2022-11-28T01:41:01.461Z,45.5
2022-11-28T01:42:01.994Z,46.3
2022-11-28T01:43:01.224Z,46.8
2022-11-28T01:44:01.872Z,47.4
2022-11-28T01:45:01.315Z,48.4
2022-11-28T01:46:00.499Z,48.9
2022-11-28T01:47:00.205Z,49.9
2022-11-28T01:47:59.878Z,50.7
2022-11-28T01:48:59.472Z,51.6
2022-11-28T01:50:02.565Z,52
2022-11-28T01:51:01.145Z,52.3
2022-11-28T01:52:01.254Z,52.5
2022-11-28T01:53:01.857Z,52.9
2022-11-28T01:54:02.501Z,53.2
2022-11-28T01:55:02.083Z,53.4
2022-11-28T01:56:01.451Z,53.3
2022-11-28T01:57:01.091Z,53.4
2022-11-28T01:58:00.771Z,53.5
2022-11-28T01:59:00.480Z,53.7
2022-11-28T02:00:00.197Z,53.7
2022-11-28T02:01:00.058Z,53.7
2022-11-28T02:01:59.888Z,53.5
2022-11-28T02:02:59.671Z,53.5
2022-11-28T02:04:01.514Z,53.3
2022-11-28T02:05:02.185Z,53.2
2022-11-28T02:06:01.126Z,53
2022-11-28T02:07:01.130Z,53.2
2022-11-28T02:08:01.187Z,53.2
2022-11-28T02:09:01.152Z,53.2
2022-11-28T02:10:00.481Z,53.5
2022-11-28T02:11:00.496Z,53.5
2022-11-28T02:12:00.244Z,53.7
2022-11-28T02:12:59.962Z,53.6
2022-11-28T02:13:59.751Z,53.8
2022-11-28T02:15:02.607Z,53.9
2022-11-28T02:16:01.932Z,53.9
2022-11-28T02:17:01.143Z,54.1
2022-11-28T02:18:01.113Z,54.1
2022-11-28T02:19:01.935Z,54.2
2022-11-28T02:20:01.125Z,54.4
2022-11-28T02:21:01.138Z,54.4
2022-11-28T02:22:01.151Z,54.5
2022-11-28T02:23:01.525Z,54.6
2022-11-28T02:24:01.155Z,54.5
2022-11-28T02:25:01.162Z,54.6
2022-11-28T02:26:01.065Z,54.7
2022-11-28T02:27:01.076Z,54.8
2022-11-28T02:28:01.073Z,54.9
2022-11-28T02:29:01.087Z,55
2022-11-28T02:29:59.846Z,55.2
2022-11-28T02:31:01.556Z,55.2
2022-11-28T02:32:01.907Z,55.3
2022-11-28T02:33:01.282Z,55.7
2022-11-28T02:34:02.031Z,55.4
2022-11-28T02:35:01.854Z,55.3
2022-11-28T02:36:01.110Z,55.4
2022-11-28T02:37:01.118Z,55.3
2022-11-28T02:38:01.132Z,55.5
2022-11-28T02:39:01.835Z,55.5
2022-11-28T02:40:01.066Z,55.6
2022-11-28T02:41:01.158Z,55.6
2022-11-28T02:42:01.178Z,55.6
2022-11-28T02:43:01.072Z,55.6
2022-11-28T02:44:04.218Z,55.5
2022-11-28T02:45:01.081Z,55.8
2022-11-28T02:46:01.087Z,56.1
2022-11-28T02:47:01.518Z,55.7
2022-11-28T02:48:01.494Z,55.6
2022-11-28T02:49:01.097Z,55.4
2022-11-28T02:50:01.103Z,55.5
2022-11-28T02:51:01.164Z,55.5
2022-11-28T02:52:04.306Z,55.6
2022-11-28T02:53:01.120Z,55.9
2022-11-28T02:54:01.152Z,56
2022-11-28T02:55:01.876Z,56.1
2022-11-28T02:56:01.515Z,56
2022-11-28T02:57:08.011Z,55.7
2022-11-28T02:58:01.957Z,55.6
2022-11-28T02:59:01.086Z,55.7
2022-11-28T03:00:00.640Z,55.8
2022-11-28T03:01:00.689Z,55.7
2022-11-28T03:02:10.937Z,55.3
2022-11-28T03:03:01.459Z,55.2
2022-11-28T03:04:01.227Z,55.3
2022-11-28T03:05:02.159Z,55.3
2022-11-28T03:06:01.142Z,55.5
2022-11-28T03:07:13.849Z,55.6
2022-11-28T03:08:01.212Z,55.6
2022-11-28T03:09:01.236Z,55.6
2022-11-28T03:10:01.491Z,55.6
2022-11-28T03:11:02.262Z,55.6
2022-11-28T03:12:16.863Z,55.6
2022-11-28T03:13:02.661Z,55.4
2022-11-28T03:14:00.826Z,55.2
2022-11-28T03:15:00.545Z,55.2
2022-11-28T03:16:00.263Z,55.4
2022-11-28T03:16:59.924Z,55.3
2022-11-28T03:17:59.535Z,55.4
2022-11-28T03:19:01.432Z,55.5
2022-11-28T03:20:01.084Z,56
2022-11-28T03:21:01.183Z,56
2022-11-28T03:22:01.098Z,56
2022-11-28T03:23:01.110Z,56.1
2022-11-28T03:24:01.115Z,56
2022-11-28T03:25:01.123Z,56.3
2022-11-28T03:26:01.172Z,56.3
2022-11-28T03:27:01.183Z,56.4
2022-11-28T03:28:01.140Z,56.5
2022-11-28T03:29:00.747Z,56.7
2022-11-28T03:30:00.434Z,58.3
2022-11-28T03:31:00.019Z,59
2022-11-28T03:31:59.699Z,60.7
2022-11-28T03:33:01.760Z,63
2022-11-28T03:34:01.434Z,63.9
2022-11-28T03:35:01.180Z,65.7
2022-11-28T03:36:01.903Z,66.7
2022-11-28T03:37:01.646Z,66.8
2022-11-28T03:38:01.169Z,67.2
2022-11-28T03:39:02.655Z,67.6
2022-11-28T03:40:01.103Z,67.4
2022-11-28T03:41:01.157Z,67.6
2022-11-28T03:42:01.139Z,67.8
2022-11-28T03:43:01.438Z,67.9
2022-11-28T03:44:01.160Z,68.3
2022-11-28T03:45:01.041Z,69.9
2022-11-28T03:46:01.042Z,71.5
2022-11-28T03:47:01.122Z,73.9
2022-11-28T03:48:01.075Z,74.5
2022-11-28T03:49:01.743Z,74.5
2022-11-28T03:50:01.072Z,74.5
2022-11-28T03:51:01.778Z,74.4
2022-11-28T03:52:01.340Z,74.7
2022-11-28T03:53:02.166Z,75.2
2022-11-28T03:54:01.908Z,76.3
2022-11-28T03:55:01.119Z,76.7
2022-11-28T03:56:01.183Z,77.6
2022-11-28T03:57:01.104Z,77.8
2022-11-28T03:58:01.121Z,77.9
2022-11-28T03:59:01.144Z,78.2
2022-11-28T04:00:01.561Z,79.4
2022-11-28T04:01:01.522Z,79.5
2022-11-28T04:02:01.216Z,80.5
2022-11-28T04:03:01.259Z,82
2022-11-28T04:04:01.067Z,82.1
2022-11-28T04:05:01.061Z,82.3
2022-11-28T04:06:01.278Z,82.5
2022-11-28T04:07:01.278Z,82.6
2022-11-28T04:08:01.166Z,82.7
2022-11-28T04:09:01.787Z,83.3
2022-11-28T04:10:01.205Z,83.6
2022-11-28T04:11:04.761Z,83.6
2022-11-28T04:12:01.107Z,83.5
2022-11-28T04:13:01.104Z,83.7
2022-11-28T04:14:00.856Z,84.1
2022-11-28T04:15:00.432Z,84.4
2022-11-28T04:16:00.198Z,84.4
2022-11-28T04:16:59.935Z,84.3
2022-11-28T04:17:59.696Z,84.7
2022-11-28T04:19:01.556Z,85.7
2022-11-28T04:20:01.732Z,86
2022-11-28T04:21:01.735Z,86.2
2022-11-28T04:22:01.070Z,87.3
2022-11-28T04:23:01.737Z,87.5
2022-11-28T04:24:01.042Z,88
2022-11-28T04:25:02.239Z,88.3
2022-11-28T04:26:02.365Z,88.2
2022-11-28T04:27:02.203Z,88.3
2022-11-28T04:28:08.344Z,88.4
2022-11-28T04:29:01.948Z,88.4
2022-11-28T04:30:05.597Z,88.4
2022-11-28T04:31:01.134Z,88.7
2022-11-28T04:32:01.207Z,89
2022-11-28T04:33:11.174Z,89.1
2022-11-28T04:34:01.881Z,89
2022-11-28T04:35:01.555Z,89.1
2022-11-28T04:36:01.057Z,89.1
2022-11-28T04:37:05.491Z,90
2022-11-28T04:38:12.858Z,90.5
2022-11-28T04:39:01.069Z,90.7
2022-11-28T04:40:01.399Z,90.8
2022-11-28T04:41:01.283Z,91.6
2022-11-28T04:42:01.105Z,92.2
2022-11-28T04:43:15.006Z,92.3
2022-11-28T04:44:01.051Z,92.3
2022-11-28T04:45:02.950Z,92.2
2022-11-28T04:46:01.609Z,92.3
2022-11-28T04:47:01.410Z,92.3
2022-11-28T04:48:01.281Z,92.4
2022-11-28T04:49:00.939Z,92.8
2022-11-28T04:50:01.149Z,93
2022-11-28T04:51:01.155Z,93.4
2022-11-28T04:52:01.548Z,94.4
2022-11-28T04:53:01.161Z,94.9
2022-11-28T04:54:01.065Z,95.2
2022-11-28T04:55:01.085Z,95.8
2022-11-28T04:56:01.068Z,96.9
2022-11-28T04:57:01.080Z,97.6
2022-11-28T04:58:01.090Z,98
2022-11-28T04:59:01.094Z,98.2
2022-11-28T05:00:01.112Z,98.1
2022-11-28T05:01:01.228Z,98.2
2022-11-28T05:02:01.266Z,98.3
2022-11-28T05:03:01.195Z,98.3
2022-11-28T05:04:01.048Z,98.6
2022-11-28T05:05:01.050Z,98.9
2022-11-28T05:06:01.149Z,99
2022-11-28T05:07:01.152Z,99
2022-11-28T05:08:01.254Z,99.3
2022-11-28T05:09:01.057Z,99.5
2022-11-28T05:10:01.746Z,99.6
2022-11-28T05:11:01.070Z,99.5
2022-11-28T05:12:01.066Z,99.4
2022-11-28T05:13:01.087Z,99.4
2022-11-28T05:14:00.688Z,99.5
2022-11-28T05:15:00.250Z,99.5
2022-11-28T05:15:59.952Z,99.6
2022-11-28T05:16:59.692Z,99.7
2022-11-28T05:18:01.795Z,99.8
2022-11-28T05:19:01.411Z,99.8
2022-11-28T05:20:02.395Z,99.8
2022-11-28T05:21:01.062Z,99.7
2022-11-28T05:22:01.312Z,99.8
2022-11-28T05:23:01.316Z,99.8
2022-11-28T05:24:01.184Z,99.8
2022-11-28T05:25:01.098Z,99.8
2022-11-28T05:26:01.078Z,99.8
2022-11-28T05:27:01.077Z,99.9
2022-11-28T05:28:01.084Z,99.9
2022-11-28T05:29:00.715Z,99.9
2022-11-28T05:30:00.417Z,99.9
2022-11-28T05:31:00.049Z,99.9
2022-11-28T05:31:59.667Z,99.9
2022-11-28T05:33:02.411Z,99.9
2022-11-28T05:34:01.055Z,99.8
2022-11-28T05:35:01.726Z,99.8
2022-11-28T05:36:01.207Z,99.7
2022-11-28T05:37:01.127Z,99.8
2022-11-28T05:38:01.139Z,99.9
2022-11-28T05:39:01.743Z,99.8
2022-11-28T05:40:01.154Z,99.9
2022-11-28T05:41:00.847Z,99.9
2022-11-28T05:42:00.413Z,99.8
2022-11-28T05:43:00.033Z,99.7
2022-11-28T05:44:00.471Z,99.7
2022-11-28T05:45:00.407Z,99.9
2022-11-28T05:46:00.225Z,99.7
2022-11-28T05:46:59.853Z,99.6
2022-11-28T05:48:01.756Z,99.7
2022-11-28T05:49:01.413Z,99.7
2022-11-28T05:50:01.106Z,99.7
2022-11-28T05:51:01.137Z,99.7
2022-11-28T05:52:01.151Z,99.7
2022-11-28T05:53:01.161Z,99.7
2022-11-28T05:54:01.156Z,99.8
2022-11-28T05:55:01.717Z,99.9
2022-11-28T05:56:01.156Z,99.9
2022-11-28T05:57:01.258Z,99.9
2022-11-28T05:58:01.057Z,99.9
2022-11-28T05:59:01.170Z,99.8
2022-11-28T06:00:01.248Z,99.9
2022-11-28T06:01:01.891Z,99.9
2022-11-28T06:02:02.196Z,99.9
2022-11-28T06:03:02.449Z,99.8
2022-11-28T06:04:01.264Z,99.6
2022-11-28T06:05:20.976Z,99.3
2022-11-28T06:06:02.018Z,99.1
2022-11-28T06:07:01.297Z,99
2022-11-28T06:08:01.562Z,99
2022-11-28T06:09:02.700Z,98.7
2022-11-28T06:10:01.813Z,98.4
2022-11-28T06:11:01.677Z,98.1
2022-11-28T06:12:01.064Z,97.8
2022-11-28T06:13:01.159Z,97.6
2022-11-28T06:14:05.232Z,97.5
2022-11-28T06:15:01.041Z,97.3
2022-11-28T06:16:01.588Z,97.1
2022-11-28T06:17:01.284Z,96.9
2022-11-28T06:18:01.682Z,96.5
2022-11-28T06:19:08.037Z,96.3
2022-11-28T06:20:01.578Z,96.2
2022-11-28T06:21:01.916Z,95.8
2022-11-28T06:22:01.121Z,95.4
2022-11-28T06:23:01.169Z,95
2022-11-28T06:24:09.558Z,94.8
2022-11-28T06:25:01.167Z,94.7
2022-11-28T06:26:01.049Z,94.6
2022-11-28T06:27:01.523Z,94.5
2022-11-28T06:28:01.143Z,94.1
2022-11-28T06:29:12.344Z,93.9
2022-11-28T06:30:01.084Z,93.8
2022-11-28T06:31:01.062Z,93.8
2022-11-28T06:32:00.848Z,93.4
2022-11-28T06:33:00.548Z,93.2
2022-11-28T06:34:15.641Z,93.1
2022-11-28T06:35:01.907Z,93.1
2022-11-28T06:36:01.508Z,93
2022-11-28T06:37:00.585Z,92.9
2022-11-28T06:38:00.303Z,93
2022-11-28T06:38:59.984Z,92.9
2022-11-28T06:39:59.611Z,92.9
2022-11-28T06:41:01.276Z,92.9
2022-11-28T06:42:01.146Z,92.9
2022-11-28T06:43:01.146Z,92.9
2022-11-28T06:44:01.145Z,92.8
2022-11-28T06:45:01.550Z,92.7
2022-11-28T06:46:01.144Z,92.7
2022-11-28T06:47:01.126Z,92.7
2022-11-28T06:48:01.787Z,92.8
2022-11-28T06:49:00.858Z,92.9
2022-11-28T06:50:00.455Z,92.9
2022-11-28T06:51:00.162Z,92.9
2022-11-28T06:52:00.223Z,92.9
2022-11-28T06:53:00.248Z,92.9
2022-11-28T06:54:00.306Z,92.9
2022-11-28T06:54:59.973Z,93
2022-11-28T06:55:59.682Z,93
2022-11-28T06:57:01.306Z,93.2
2022-11-28T06:58:02.035Z,93.2
2022-11-28T06:59:01.147Z,93.3
2022-11-28T07:00:01.751Z,93.4
2022-11-28T07:01:01.124Z,93.4
2022-11-28T07:02:06.971Z,93.6
2022-11-28T07:03:02.858Z,93.7
2022-11-28T07:04:01.828Z,93.8
2022-11-28T07:05:01.784Z,93.8
2022-11-28T07:06:01.101Z,94
2022-11-28T07:07:01.100Z,94
2022-11-28T07:08:02.030Z,94.1
2022-11-28T07:09:01.483Z,94.3
2022-11-28T07:10:01.959Z,94.3
2022-11-28T07:11:01.150Z,94.4
2022-11-28T07:12:01.114Z,94.5
2022-11-28T07:13:05.127Z,94.5
2022-11-28T07:14:01.119Z,94.6
2022-11-28T07:15:01.198Z,94.7
2022-11-28T07:16:01.537Z,94.9
2022-11-28T07:17:01.277Z,94.9
2022-11-28T07:18:01.046Z,94.9
2022-11-28T07:19:01.077Z,95
2022-11-28T07:20:01.084Z,94.9
2022-11-28T07:21:01.087Z,94.9
2022-11-28T07:22:01.087Z,94.9
2022-11-28T07:23:01.106Z,94.9
2022-11-28T07:24:01.092Z,94.9
2022-11-28T07:25:16.263Z,94.9
2022-11-28T07:26:02.297Z,94.9
2022-11-28T07:27:01.866Z,94.9
2022-11-28T07:28:00.997Z,94.9
2022-11-28T07:29:01.119Z,94.8
2022-11-28T07:30:01.123Z,94.7
2022-11-28T07:31:01.188Z,94.7
2022-11-28T07:32:01.235Z,94.6
2022-11-28T07:33:01.535Z,94.7
2022-11-28T07:34:01.572Z,94.7
2022-11-28T07:35:01.158Z,94.7
2022-11-28T07:36:01.078Z,94.7
2022-11-28T07:37:01.065Z,94.7
2022-11-28T07:38:01.067Z,94.7
2022-11-28T07:39:01.137Z,94.8
2022-11-28T07:40:01.654Z,94.7
2022-11-28T07:41:01.236Z,94.7
2022-11-28T07:42:02.007Z,94.8
2022-11-28T07:43:04.062Z,94.8
2022-11-28T07:44:01.239Z,94.6
2022-11-28T07:45:01.118Z,94.6
2022-11-28T07:46:02.189Z,94.7
2022-11-28T07:47:02.002Z,94.7
2022-11-28T07:48:00.969Z,94.7
2022-11-28T07:49:01.474Z,94.7
2022-11-28T07:50:02.026Z,94.5
2022-11-28T07:51:01.225Z,94.4
2022-11-28T07:52:01.672Z,94.3
2022-11-28T07:53:06.852Z,94.3
2022-11-28T07:54:01.090Z,94.2
2022-11-28T07:55:05.545Z,94.1
2022-11-28T07:56:01.320Z,94
2022-11-28T07:57:12.312Z,93.9
2022-11-28T07:58:02.100Z,93.7
2022-11-28T07:59:03.345Z,93.6
2022-11-28T08:00:07.823Z,93.4
2022-11-28T08:01:01.150Z,93.3
2022-11-28T08:02:01.242Z,93.1
2022-11-28T08:03:01.455Z,92.9
2022-11-28T08:04:01.172Z,92.5
2022-11-28T08:05:11.370Z,92.6
2022-11-28T08:06:03.171Z,92.3
2022-11-28T08:07:02.215Z,91.9
2022-11-28T08:08:02.040Z,91.5
2022-11-28T08:09:01.273Z,90.8
2022-11-28T08:10:08.526Z,90.4
2022-11-28T08:11:01.962Z,90.4
2022-11-28T08:12:01.098Z,90
2022-11-28T08:13:01.105Z,89.5
2022-11-28T08:14:01.092Z,87.7
2022-11-28T08:15:16.744Z,86.1
2022-11-28T08:16:01.107Z,85.9
2022-11-28T08:17:01.224Z,85.6
2022-11-28T08:18:02.025Z,83.7
2022-11-28T08:19:04.108Z,82.8
2022-11-28T08:20:01.144Z,82.1
2022-11-28T08:21:02.466Z,81.3
2022-11-28T08:22:01.546Z,80.4
2022-11-28T08:23:01.391Z,79.7
2022-11-28T08:24:01.173Z,78.6
2022-11-28T08:25:00.983Z,76.9
2022-11-28T08:26:01.103Z,75.4
2022-11-28T08:27:01.170Z,73.6
2022-11-28T08:28:00.870Z,73
2022-11-28T08:29:00.562Z,71.8
2022-11-28T08:30:00.262Z,71.1
2022-11-28T08:31:00.027Z,69.5
2022-11-28T08:31:59.766Z,67.9
2022-11-28T08:33:01.601Z,63.8
2022-11-28T08:34:01.129Z,62.7
2022-11-28T08:35:01.121Z,61.2
2022-11-28T08:36:01.279Z,59.6
2022-11-28T08:37:01.141Z,58.3
2022-11-28T08:38:02.192Z,58.1
2022-11-28T08:40:01.056Z,56.5
2022-11-28T08:41:01.073Z,55.4
2022-11-28T08:42:01.064Z,54.8
2022-11-28T08:43:01.073Z,53.9
2022-11-28T08:44:01.072Z,53.2
2022-11-28T08:45:01.088Z,52.6
2022-11-28T08:46:01.551Z,50.8
2022-11-28T08:47:01.425Z,49.9
2022-11-28T08:48:01.686Z,49.3
2022-11-28T08:49:04.355Z,49.1
2022-11-28T08:50:01.412Z,47.7
2022-11-28T08:51:01.210Z,47.1
2022-11-28T08:52:01.148Z,46.8
2022-11-28T08:53:07.594Z,46.6
2022-11-28T08:54:00.522Z,46.1
2022-11-28T08:55:00.117Z,45.8
2022-11-28T08:55:59.821Z,45.4
2022-11-28T08:57:01.536Z,44.6
2022-11-28T08:58:01.099Z,44.6
2022-11-28T08:59:01.070Z,44.6
2022-11-28T09:00:01.080Z,44.2
2022-11-28T09:01:01.867Z,43.4
2022-11-28T09:02:01.461Z,43
2022-11-28T09:03:00.582Z,42.1
2022-11-28T09:04:00.224Z,41.5
2022-11-28T09:04:59.832Z,40.9
2022-11-28T09:06:01.797Z,39.8
2022-11-28T09:07:01.422Z,39.6
2022-11-28T09:08:02.149Z,39.6
2022-11-28T09:09:01.137Z,39.6
2022-11-28T09:10:01.058Z,39.4
2022-11-28T09:11:01.146Z,39.4
2022-11-28T09:12:01.090Z,39.4
2022-11-28T09:13:01.076Z,39
2022-11-28T09:14:01.451Z,38.7
2022-11-28T09:15:01.452Z,38.6
2022-11-28T09:16:02.322Z,38.6
2022-11-28T09:17:01.205Z,38.4
2022-11-28T09:18:01.082Z,37.8
2022-11-28T09:19:01.208Z,37.6
2022-11-28T09:20:01.115Z,37.7
2022-11-28T09:21:01.110Z,37.7
2022-11-28T09:22:01.133Z,37.6
2022-11-28T09:23:02.082Z,37.1
2022-11-28T09:24:01.137Z,37
2022-11-28T09:25:01.124Z,36.3
2022-11-28T09:26:01.148Z,35.6
2022-11-28T09:27:01.173Z,34.9
2022-11-28T09:28:01.142Z,34.8
2022-11-28T09:29:00.842Z,34.7
2022-11-28T09:30:00.446Z,34.2
2022-11-28T09:31:00.274Z,34.1
2022-11-28T09:31:59.945Z,33.5
2022-11-28T09:32:59.535Z,32.9
2022-11-28T09:34:01.098Z,32.9
2022-11-28T09:35:01.089Z,32.9
2022-11-28T09:36:01.126Z,32.9
2022-11-28T09:37:04.858Z,32.9
2022-11-28T09:38:01.103Z,32.7
2022-11-28T09:39:01.257Z,32.6
2022-11-28T09:40:16.082Z,32.7
2022-11-28T09:41:01.743Z,32.6
2022-11-28T09:42:01.138Z,32.1
2022-11-28T09:43:01.155Z,32.1
2022-11-28T09:44:01.157Z,31.8
2022-11-28T09:45:01.157Z,31.4
2022-11-28T09:46:05.098Z,31.1
2022-11-28T09:47:01.311Z,30.6
2022-11-28T09:48:01.447Z,30.4
2022-11-28T09:49:01.155Z,30.6
2022-11-28T09:50:01.104Z,30.3
2022-11-28T09:51:09.071Z,30.1
2022-11-28T09:52:01.296Z,29.6
2022-11-28T09:53:01.214Z,29.6
2022-11-28T09:54:01.111Z,29.7
2022-11-28T09:55:01.128Z,28.6
2022-11-28T09:56:10.797Z,28.4
2022-11-28T09:57:01.514Z,28.2
2022-11-28T09:58:01.131Z,27.6
2022-11-28T09:59:01.045Z,27.5
2022-11-28T10:00:01.147Z,27.2
2022-11-28T10:01:14.805Z,27.2
2022-11-28T10:02:01.060Z,26.6
2022-11-28T10:03:01.079Z,26.1
2022-11-28T10:04:01.186Z,25.7
2022-11-28T10:05:00.963Z,25.8
2022-11-28T10:06:16.548Z,25.1
2022-11-28T10:07:01.104Z,24.9
2022-11-28T10:08:00.886Z,24.7
2022-11-28T10:09:00.694Z,24.5
2022-11-28T10:10:00.289Z,24.1
2022-11-28T10:10:59.873Z,24.3
2022-11-28T10:11:59.494Z,24
2022-11-28T10:13:01.126Z,23.8
2022-11-28T10:14:08.200Z,24
2022-11-28T10:15:01.141Z,24.3
2022-11-28T10:16:01.141Z,24
2022-11-28T10:17:01.324Z,22.7
2022-11-28T10:18:01.998Z,22.4
2022-11-28T10:19:02.138Z,22.6
2022-11-28T10:20:01.426Z,22.4
2022-11-28T10:21:01.480Z,22
2022-11-28T10:22:01.473Z,21.6
2022-11-28T10:23:01.105Z,21.2
2022-11-28T10:24:01.110Z,21.6
2022-11-28T10:25:01.102Z,21.4
2022-11-28T10:26:01.051Z,21.3
2022-11-28T10:27:01.510Z,21.3
2022-11-28T10:28:01.224Z,21.3
2022-11-28T10:29:01.142Z,20.7
2022-11-28T10:30:01.212Z,20.1
2022-11-28T10:31:02.178Z,20.3
2022-11-28T10:32:01.155Z,19.8
2022-11-28T10:33:01.179Z,19.7
2022-11-28T10:34:01.103Z,19.5
2022-11-28T10:35:01.080Z,19.2
2022-11-28T10:36:01.072Z,19.2
2022-11-28T10:37:01.472Z,19.2
2022-11-28T10:38:01.083Z,18.9
2022-11-28T10:39:01.087Z,19.1
2022-11-28T10:40:01.092Z,18.5
2022-11-28T10:41:01.107Z,18.2
2022-11-28T10:42:01.111Z,18.4
2022-11-28T10:43:01.152Z,18.5
2022-11-28T10:44:01.115Z,18.3
2022-11-28T10:45:01.115Z,18.2
2022-11-28T10:46:01.338Z,18
2022-11-28T10:47:01.105Z,17.7
2022-11-28T10:48:11.854Z,18.1
2022-11-28T10:49:00.741Z,17.8
2022-11-28T10:50:00.446Z,17.6
2022-11-28T10:51:00.038Z,17.3
2022-11-28T10:51:59.641Z,16.6
2022-11-28T10:53:01.462Z,16.7
2022-11-28T10:54:02.340Z,16.9
2022-11-28T10:55:01.087Z,16.3
2022-11-28T10:56:01.097Z,16.5
2022-11-28T10:57:01.094Z,16
2022-11-28T10:58:01.445Z,16.4
2022-11-28T10:59:01.486Z,16.1
2022-11-28T11:00:01.118Z,16.2
2022-11-28T11:01:01.219Z,15.9
2022-11-28T11:02:01.136Z,15.9
2022-11-28T11:03:01.155Z,15.6
2022-11-28T11:04:01.171Z,15.5
2022-11-28T11:05:01.220Z,15.3
2022-11-28T11:06:01.307Z,14.8
2022-11-28T11:07:09.098Z,14.5
2022-11-28T11:08:01.171Z,14.5
2022-11-28T11:09:01.287Z,14.4
2022-11-28T11:10:01.109Z,14.5
2022-11-28T11:11:01.129Z,13.9
2022-11-28T11:12:01.118Z,14.1
2022-11-28T11:13:01.109Z,14.1
2022-11-28T11:14:01.127Z,14
2022-11-28T11:15:01.109Z,13.9
2022-11-28T11:16:01.154Z,14.1
2022-11-28T11:17:01.123Z,13.9
2022-11-28T11:18:01.131Z,13.3
2022-11-28T11:19:01.854Z,13
2022-11-28T11:20:01.140Z,13
2022-11-28T11:21:01.145Z,13.6
2022-11-28T11:22:01.156Z,13.5
2022-11-28T11:23:01.057Z,12.8
2022-11-28T11:24:01.317Z,12.6
2022-11-28T11:25:01.770Z,12.7
2022-11-28T11:26:02.081Z,12.8
2022-11-28T11:27:02.826Z,12.6
2022-11-28T11:28:01.141Z,12.5
2022-11-28T11:29:01.099Z,12.2
2022-11-28T11:30:00.918Z,12.4
2022-11-28T11:31:01.283Z,12.3
2022-11-28T11:32:04.994Z,12.1
2022-11-28T11:33:01.449Z,11.9
2022-11-28T11:34:02.138Z,12
2022-11-28T11:35:01.127Z,11.7
2022-11-28T11:36:01.053Z,11.7
2022-11-28T11:37:09.566Z,11.7
2022-11-28T11:38:01.200Z,11.5
2022-11-28T11:39:01.762Z,10.9
2022-11-28T11:40:01.446Z,11.2
2022-11-28T11:41:01.457Z,11.3
2022-11-28T11:42:12.734Z,11.2
2022-11-28T11:43:01.082Z,11.2
2022-11-28T11:44:01.052Z,10.5
2022-11-28T11:45:01.088Z,10.9
2022-11-28T11:46:01.216Z,10.8
2022-11-28T11:47:14.945Z,10.9
2022-11-28T11:48:01.227Z,10.9
2022-11-28T11:49:01.524Z,10.6
2022-11-28T11:50:02.034Z,10.3
2022-11-28T11:51:01.135Z,10.5
2022-11-28T11:52:01.215Z,10.6
2022-11-28T11:53:01.051Z,10.6
2022-11-28T11:54:00.754Z,10.5
2022-11-28T11:55:00.497Z,10.9
2022-11-28T11:56:00.127Z,10.8
2022-11-28T11:57:25.055Z,10.8
2022-11-28T11:58:05.655Z,10.7
2022-11-28T11:59:01.491Z,10.9
2022-11-28T12:00:01.111Z,10.6
2022-11-28T12:01:01.094Z,10.5
2022-11-28T12:02:01.128Z,10.4
2022-11-28T12:03:01.361Z,10.4
2022-11-28T12:04:08.580Z,10.7
2022-11-28T12:05:01.209Z,10.8
2022-11-28T12:06:16.337Z,10.6
2022-11-28T12:07:01.756Z,10.2
2022-11-28T12:08:01.833Z,10.4
2022-11-28T12:09:01.433Z,10.4
2022-11-28T12:10:04.522Z,10.6
2022-11-28T12:11:02.585Z,10.8
2022-11-28T12:12:02.075Z,10.8
2022-11-28T12:13:01.445Z,11.1
2022-11-28T12:14:01.982Z,11.1
2022-11-28T12:15:01.166Z,11.5
2022-11-28T12:16:01.158Z,11.7
2022-11-28T12:17:01.128Z,11.3
2022-11-28T12:18:01.092Z,11.8
2022-11-28T12:19:01.106Z,11.8
2022-11-28T12:20:01.137Z,11.8
2022-11-28T12:21:01.114Z,11.8
2022-11-28T12:22:01.126Z,11.8
2022-11-28T12:23:01.519Z,11.8
2022-11-28T12:24:01.309Z,11.8
2022-11-28T12:25:01.146Z,11.8
2022-11-28T12:26:01.143Z,11.8
2022-11-28T12:27:01.090Z,12.1
2022-11-28T12:28:01.048Z,12.2
2022-11-28T12:29:00.694Z,11.8
2022-11-28T12:30:00.526Z,12.1
2022-11-28T12:31:00.545Z,12.3
2022-11-28T12:32:00.514Z,12.3
2022-11-28T12:33:00.155Z,12.4
2022-11-28T12:33:59.840Z,12.5
2022-11-28T12:35:01.671Z,12.4
2022-11-28T12:36:03.394Z,12.6
2022-11-28T12:37:01.539Z,12.6
2022-11-28T12:38:16.595Z,12.6
2022-11-28T12:39:01.132Z,12.5
2022-11-28T12:40:01.142Z,12.4
2022-11-28T12:41:01.447Z,12.3
2022-11-28T12:42:02.331Z,12.6
2022-11-28T12:43:01.066Z,12.8
2022-11-28T12:44:01.726Z,12.9
2022-11-28T12:45:01.059Z,13
2022-11-28T12:46:01.100Z,12.9
2022-11-28T12:47:01.077Z,12.8
2022-11-28T12:48:01.082Z,12.8
2022-11-28T12:49:00.766Z,13
2022-11-28T12:50:00.419Z,13.4
2022-11-28T12:51:00.426Z,13.4
2022-11-28T12:51:59.991Z,13.3
2022-11-28T12:52:59.583Z,13.2
2022-11-28T12:54:01.347Z,13.2
2022-11-28T12:55:01.060Z,13.3
2022-11-28T12:56:01.143Z,13.3
2022-11-28T12:57:01.245Z,13.1
2022-11-28T12:58:06.560Z,13.1
2022-11-28T12:59:01.146Z,12.9
2022-11-28T13:00:08.126Z,13
2022-11-28T13:01:01.079Z,13
2022-11-28T13:02:05.203Z,12.9
2022-11-28T13:03:01.175Z,12.9
2022-11-28T13:04:01.941Z,13
2022-11-28T13:05:02.524Z,13.1
2022-11-28T13:06:01.109Z,13.2
2022-11-28T13:07:01.098Z,13.1
2022-11-28T13:08:01.164Z,13
2022-11-28T13:09:00.783Z,13.2
2022-11-28T13:10:00.405Z,13.2
2022-11-28T13:11:00.405Z,12.9
2022-11-28T13:12:00.006Z,12.6
2022-11-28T13:12:59.574Z,12.5
2022-11-28T13:14:01.270Z,12.5
2022-11-28T13:15:01.142Z,12.5
2022-11-28T13:16:01.223Z,12.3
2022-11-28T13:17:01.047Z,12.4
2022-11-28T13:18:04.064Z,12.1
2022-11-28T13:19:01.068Z,12
2022-11-28T13:20:01.047Z,12
2022-11-28T13:21:01.342Z,12.1
2022-11-28T13:22:01.450Z,12.2
2022-11-28T13:23:01.957Z,12.6
2022-11-28T13:24:06.843Z,12.5